sensor_id;sensor_type;location;lat;lon;timestamp;temperature;humidity
66401;HTU21D;53211;45.040;38.788;2023-01-16T00:01:04;-0.49;88.64
66401;HTU21D;53211;45.040;38.788;2023-01-16T00:03:30;-0.45;88.70
66401;HTU21D;53211;45.040;38.788;2023-01-16T00:05:56;-0.42;88.60
66401;HTU21D;53211;45.040;38.788;2023-01-16T00:08:22;-0.41;88.47
66401;HTU21D;53211;45.040;38.788;2023-01-16T00:10:48;-0.40;88.31
66401;HTU21D;53211;45.040;38.788;2023-01-16T00:13:14;-0.41;88.28
66401;HTU21D;53211;45.040;38.788;2023-01-16T00:15:48;-0.41;88.24
66401;HTU21D;53211;45.040;38.788;2023-01-16T00:18:15;-0.43;88.28
66401;HTU21D;53211;45.040;38.788;2023-01-16T00:20:41;-0.43;88.28
66401;HTU21D;53211;45.040;38.788;2023-01-16T00:23:07;-0.42;88.35
66401;HTU21D;53211;45.040;38.788;2023-01-16T00:25:39;-0.39;88.40
66401;HTU21D;53211;45.040;38.788;2023-01-16T00:28:09;-0.37;88.35
66401;HTU21D;53211;45.040;38.788;2023-01-16T00:30:36;-0.32;88.35
66401;HTU21D;53211;45.040;38.788;2023-01-16T00:33:03;-0.30;88.31
66401;HTU21D;53211;45.040;38.788;2023-01-16T00:35:29;-0.27;88.30
66401;HTU21D;53211;45.040;38.788;2023-01-16T00:37:56;-0.26;88.33
66401;HTU21D;53211;45.040;38.788;2023-01-16T00:40:22;-0.21;88.38
66401;HTU21D;53211;45.040;38.788;2023-01-16T00:42:48;-0.17;88.35
66401;HTU21D;53211;45.040;38.788;2023-01-16T00:45:14;-0.17;88.28
66401;HTU21D;53211;45.040;38.788;2023-01-16T00:47:40;-0.16;88.18
66401;HTU21D;53211;45.040;38.788;2023-01-16T00:50:07;-0.21;88.05
66401;HTU21D;53211;45.040;38.788;2023-01-16T00:52:33;-0.27;87.89
66401;HTU21D;53211;45.040;38.788;2023-01-16T00:54:59;-0.35;87.70
66401;HTU21D;53211;45.040;38.788;2023-01-16T00:57:25;-0.45;87.52
66401;HTU21D;53211;45.040;38.788;2023-01-16T00:59:51;-0.54;87.42
66401;HTU21D;53211;45.040;38.788;2023-01-16T01:02:17;-0.65;87.38
66401;HTU21D;53211;45.040;38.788;2023-01-16T01:04:43;-0.76;87.38
66401;HTU21D;53211;45.040;38.788;2023-01-16T01:07:09;-0.87;87.36
66401;HTU21D;53211;45.040;38.788;2023-01-16T01:09:35;-0.98;87.34
66401;HTU21D;53211;45.040;38.788;2023-01-16T01:12:01;-1.08;87.35
66401;HTU21D;53211;45.040;38.788;2023-01-16T01:14:27;-1.17;87.43
66401;HTU21D;53211;45.040;38.788;2023-01-16T01:16:53;-1.26;87.51
66401;HTU21D;53211;45.040;38.788;2023-01-16T01:19:19;-1.32;87.59
66401;HTU21D;53211;45.040;38.788;2023-01-16T01:21:46;-1.36;87.60
66401;HTU21D;53211;45.040;38.788;2023-01-16T01:24:12;-1.43;87.61
66401;HTU21D;53211;45.040;38.788;2023-01-16T01:26:38;-1.50;88.09
66401;HTU21D;53211;45.040;38.788;2023-01-16T01:29:04;-1.54;88.35
66401;HTU21D;53211;45.040;38.788;2023-01-16T01:31:30;-1.56;88.14
66401;HTU21D;53211;45.040;38.788;2023-01-16T01:33:56;-1.57;88.15
66401;HTU21D;53211;45.040;38.788;2023-01-16T01:36:22;-1.58;88.20
66401;HTU21D;53211;45.040;38.788;2023-01-16T01:38:48;-1.56;88.19
66401;HTU21D;53211;45.040;38.788;2023-01-16T01:41:16;-1.57;88.32
66401;HTU21D;53211;45.040;38.788;2023-01-16T01:43:48;-1.58;88.11
66401;HTU21D;53211;45.040;38.788;2023-01-16T01:49:17;-1.62;88.20
66401;HTU21D;53211;45.040;38.788;2023-01-16T01:51:45;-1.61;88.25
66401;HTU21D;53211;45.040;38.788;2023-01-16T01:54:18;-1.59;88.29
66401;HTU21D;53211;45.040;38.788;2023-01-16T01:56:54;-1.55;88.38
66401;HTU21D;53211;45.040;38.788;2023-01-16T01:59:26;-1.47;88.45
66401;HTU21D;53211;45.040;38.788;2023-01-16T02:01:53;-1.42;88.49
66401;HTU21D;53211;45.040;38.788;2023-01-16T02:04:25;-1.35;88.51
66401;HTU21D;53211;45.040;38.788;2023-01-16T02:06:58;-1.29;88.49
66401;HTU21D;53211;45.040;38.788;2023-01-16T02:09:26;-1.20;88.51
66401;HTU21D;53211;45.040;38.788;2023-01-16T02:11:58;-1.14;88.52
66401;HTU21D;53211;45.040;38.788;2023-01-16T02:14:29;-1.05;88.80
66401;HTU21D;53211;45.040;38.788;2023-01-16T02:17:04;-1.01;91.90
66401;HTU21D;53211;45.040;38.788;2023-01-16T02:22:45;-1.00;94.24
66401;HTU21D;53211;45.040;38.788;2023-01-16T02:39:48;-0.85;89.37
66401;HTU21D;53211;45.040;38.788;2023-01-16T02:42:48;-0.88;89.07
66401;HTU21D;53211;45.040;38.788;2023-01-16T02:45:29;-0.95;88.76
66401;HTU21D;53211;45.040;38.788;2023-01-16T02:54:03;-1.19;88.35
66401;HTU21D;53211;45.040;38.788;2023-01-16T02:56:57;-1.30;88.18
66401;HTU21D;53211;45.040;38.788;2023-01-16T02:59:27;-1.39;88.16
66401;HTU21D;53211;45.040;38.788;2023-01-16T03:01:56;-1.47;88.12
66401;HTU21D;53211;45.040;38.788;2023-01-16T03:04:42;-1.57;88.13
66401;HTU21D;53211;45.040;38.788;2023-01-16T03:07:33;-1.65;88.07
66401;HTU21D;53211;45.040;38.788;2023-01-16T03:16:21;-1.97;88.01
66401;HTU21D;53211;45.040;38.788;2023-01-16T03:24:59;-2.21;88.06
66401;HTU21D;53211;45.040;38.788;2023-01-16T03:28:04;-2.31;88.14
66401;HTU21D;53211;45.040;38.788;2023-01-16T03:33:31;-2.45;88.22
66401;HTU21D;53211;45.040;38.788;2023-01-16T03:36:08;-2.49;88.28
66401;HTU21D;53211;45.040;38.788;2023-01-16T03:38:37;-2.53;88.30
66401;HTU21D;53211;45.040;38.788;2023-01-16T03:41:06;-2.57;88.35
66401;HTU21D;53211;45.040;38.788;2023-01-16T03:43:36;-2.62;88.20
66401;HTU21D;53211;45.040;38.788;2023-01-16T03:46:12;-2.67;88.14
66401;HTU21D;53211;45.040;38.788;2023-01-16T03:49:13;-2.72;88.28
66401;HTU21D;53211;45.040;38.788;2023-01-16T03:51:45;-2.76;88.31
66401;HTU21D;53211;45.040;38.788;2023-01-16T03:56:50;-2.81;88.39
66401;HTU21D;53211;45.040;38.788;2023-01-16T03:59:18;-2.83;88.39
66401;HTU21D;53211;45.040;38.788;2023-01-16T04:02:04;-2.84;88.43
66401;HTU21D;53211;45.040;38.788;2023-01-16T04:07:13;-2.81;88.60
66401;HTU21D;53211;45.040;38.788;2023-01-16T04:09:54;-2.80;88.59
66401;HTU21D;53211;45.040;38.788;2023-01-16T04:12:23;-2.80;88.57
66401;HTU21D;53211;45.040;38.788;2023-01-16T04:14:59;-2.78;88.51
66401;HTU21D;53211;45.040;38.788;2023-01-16T04:17:29;-2.79;88.51
66401;HTU21D;53211;45.040;38.788;2023-01-16T04:19:55;-2.79;88.51
66401;HTU21D;53211;45.040;38.788;2023-01-16T04:22:24;-2.79;88.44
66401;HTU21D;53211;45.040;38.788;2023-01-16T04:24:53;-2.77;88.51
66401;HTU21D;53211;45.040;38.788;2023-01-16T04:27:20;-2.77;88.51
66401;HTU21D;53211;45.040;38.788;2023-01-16T04:29:46;-2.75;88.58
66401;HTU21D;53211;45.040;38.788;2023-01-16T04:32:12;-2.73;88.55
66401;HTU21D;53211;45.040;38.788;2023-01-16T04:34:38;-2.72;88.54
66401;HTU21D;53211;45.040;38.788;2023-01-16T04:37:04;-2.72;88.43
66401;HTU21D;53211;45.040;38.788;2023-01-16T04:39:30;-2.73;88.39
66401;HTU21D;53211;45.040;38.788;2023-01-16T04:41:56;-2.72;88.42
66401;HTU21D;53211;45.040;38.788;2023-01-16T04:44:22;-2.72;88.46
66401;HTU21D;53211;45.040;38.788;2023-01-16T04:46:48;-2.71;88.51
66401;HTU21D;53211;45.040;38.788;2023-01-16T04:49:14;-2.69;88.37
66401;HTU21D;53211;45.040;38.788;2023-01-16T04:51:39;-2.68;88.40
66401;HTU21D;53211;45.040;38.788;2023-01-16T04:54:07;-2.69;88.44
66401;HTU21D;53211;45.040;38.788;2023-01-16T04:56:33;-2.67;88.47
66401;HTU21D;53211;45.040;38.788;2023-01-16T04:58:59;-2.66;88.39
66401;HTU21D;53211;45.040;38.788;2023-01-16T05:01:25;-2.66;88.33
66401;HTU21D;53211;45.040;38.788;2023-01-16T05:03:51;-2.64;88.43
66401;HTU21D;53211;45.040;38.788;2023-01-16T05:06:17;-2.64;88.47
66401;HTU21D;53211;45.040;38.788;2023-01-16T05:08:43;-2.62;88.41
66401;HTU21D;53211;45.040;38.788;2023-01-16T05:11:09;-2.61;88.42
66401;HTU21D;53211;45.040;38.788;2023-01-16T05:13:35;-2.60;88.43
66401;HTU21D;53211;45.040;38.788;2023-01-16T05:16:01;-2.61;88.45
66401;HTU21D;53211;45.040;38.788;2023-01-16T05:18:27;-2.60;88.47
66401;HTU21D;53211;45.040;38.788;2023-01-16T05:20:53;-2.60;88.47
66401;HTU21D;53211;45.040;38.788;2023-01-16T05:23:19;-2.59;88.52
66401;HTU21D;53211;45.040;38.788;2023-01-16T05:25:45;-2.57;88.53
66401;HTU21D;53211;45.040;38.788;2023-01-16T05:28:11;-2.56;88.58
66401;HTU21D;53211;45.040;38.788;2023-01-16T05:30:37;-2.53;88.62
66401;HTU21D;53211;45.040;38.788;2023-01-16T05:33:03;-2.51;88.65
66401;HTU21D;53211;45.040;38.788;2023-01-16T05:35:30;-2.48;88.67
66401;HTU21D;53211;45.040;38.788;2023-01-16T05:37:56;-2.45;88.72
66401;HTU21D;53211;45.040;38.788;2023-01-16T05:40:22;-2.41;88.74
66401;HTU21D;53211;45.040;38.788;2023-01-16T05:42:48;-2.36;88.78
66401;HTU21D;53211;45.040;38.788;2023-01-16T05:45:14;-2.31;88.82
66401;HTU21D;53211;45.040;38.788;2023-01-16T05:47:40;-2.27;88.83
66401;HTU21D;53211;45.040;38.788;2023-01-16T05:50:07;-2.21;88.93
66401;HTU21D;53211;45.040;38.788;2023-01-16T05:52:33;-2.16;88.95
66401;HTU21D;53211;45.040;38.788;2023-01-16T05:54:59;-2.10;88.89
66401;HTU21D;53211;45.040;38.788;2023-01-16T05:57:24;-2.08;88.89
66401;HTU21D;53211;45.040;38.788;2023-01-16T05:59:51;-2.06;88.86
66401;HTU21D;53211;45.040;38.788;2023-01-16T06:02:18;-2.03;88.86
66401;HTU21D;53211;45.040;38.788;2023-01-16T06:04:47;-2.00;88.90
66401;HTU21D;53211;45.040;38.788;2023-01-16T06:07:14;-1.95;88.97
66401;HTU21D;53211;45.040;38.788;2023-01-16T06:09:40;-1.90;88.91
66401;HTU21D;53211;45.040;38.788;2023-01-16T06:12:07;-1.86;89.02
66401;HTU21D;53211;45.040;38.788;2023-01-16T06:14:34;-1.80;89.16
66401;HTU21D;53211;45.040;38.788;2023-01-16T06:17:00;-1.74;89.18
66401;HTU21D;53211;45.040;38.788;2023-01-16T06:19:25;-0.19;89.27
66401;HTU21D;53211;45.040;38.788;2023-01-16T06:21:52;-1.60;89.42
66401;HTU21D;53211;45.040;38.788;2023-01-16T06:24:17;-1.52;89.40
66401;HTU21D;53211;45.040;38.788;2023-01-16T06:26:46;-1.44;89.48
66401;HTU21D;53211;45.040;38.788;2023-01-16T06:29:11;-1.38;89.57
66401;HTU21D;53211;45.040;38.788;2023-01-16T06:31:37;-1.29;89.50
66401;HTU21D;53211;45.040;38.788;2023-01-16T06:34:04;-1.56;89.55
66401;HTU21D;53211;45.040;38.788;2023-01-16T06:36:30;-1.11;89.63
66401;HTU21D;53211;45.040;38.788;2023-01-16T06:38:56;-1.01;89.81
66401;HTU21D;53211;45.040;38.788;2023-01-16T06:41:21;-0.93;89.84
66401;HTU21D;53211;45.040;38.788;2023-01-16T06:43:47;-0.83;89.76
66401;HTU21D;53211;45.040;38.788;2023-01-16T06:46:13;-0.75;89.85
66401;HTU21D;53211;45.040;38.788;2023-01-16T06:48:39;-0.67;89.83
66401;HTU21D;53211;45.040;38.788;2023-01-16T06:51:08;-0.58;89.97
66401;HTU21D;53211;45.040;38.788;2023-01-16T06:53:41;-0.50;89.89
66401;HTU21D;53211;45.040;38.788;2023-01-16T06:56:09;-0.44;89.87
66401;HTU21D;53211;45.040;38.788;2023-01-16T06:58:35;-0.37;89.99
66401;HTU21D;53211;45.040;38.788;2023-01-16T07:01:00;-0.31;90.05
66401;HTU21D;53211;45.040;38.788;2023-01-16T07:03:27;-0.24;90.09
66401;HTU21D;53211;45.040;38.788;2023-01-16T07:05:52;-0.19;89.95
66401;HTU21D;53211;45.040;38.788;2023-01-16T07:08:18;-0.14;90.08
66401;HTU21D;53211;45.040;38.788;2023-01-16T07:10:44;-0.07;90.10
66401;HTU21D;53211;45.040;38.788;2023-01-16T07:13:10;-0.01;90.37
66401;HTU21D;53211;45.040;38.788;2023-01-16T07:15:37;0.05;90.44
66401;HTU21D;53211;45.040;38.788;2023-01-16T07:18:22;0.12;90.57
66401;HTU21D;53211;45.040;38.788;2023-01-16T07:21:11;0.15;90.39
66401;HTU21D;53211;45.040;38.788;2023-01-16T07:24:00;0.21;90.51
66401;HTU21D;53211;45.040;38.788;2023-01-16T07:26:29;0.25;90.49
66401;HTU21D;53211;45.040;38.788;2023-01-16T07:28:58;0.31;90.50
66401;HTU21D;53211;45.040;38.788;2023-01-16T07:31:25;0.35;90.44
66401;HTU21D;53211;45.040;38.788;2023-01-16T07:33:51;0.40;90.57
66401;HTU21D;53211;45.040;38.788;2023-01-16T07:36:17;0.46;90.78
66401;HTU21D;53211;45.040;38.788;2023-01-16T07:38:43;0.50;90.65
66401;HTU21D;53211;45.040;38.788;2023-01-16T07:41:09;0.57;90.83
66401;HTU21D;53211;45.040;38.788;2023-01-16T07:43:35;0.62;90.79
66401;HTU21D;53211;45.040;38.788;2023-01-16T07:46:01;0.67;90.94
66401;HTU21D;53211;45.040;38.788;2023-01-16T07:48:27;0.73;90.97
66401;HTU21D;53211;45.040;38.788;2023-01-16T07:50:57;0.77;91.17
66401;HTU21D;53211;45.040;38.788;2023-01-16T07:53:25;0.82;91.15
66401;HTU21D;53211;45.040;38.788;2023-01-16T07:55:57;0.89;91.05
66401;HTU21D;53211;45.040;38.788;2023-01-16T07:58:24;0.95;91.07
66401;HTU21D;53211;45.040;38.788;2023-01-16T08:00:52;0.98;91.31
66401;HTU21D;53211;45.040;38.788;2023-01-16T08:03:18;1.05;91.27
66401;HTU21D;53211;45.040;38.788;2023-01-16T08:05:44;1.09;91.34
66401;HTU21D;53211;45.040;38.788;2023-01-16T08:08:11;1.14;91.69
66401;HTU21D;53211;45.040;38.788;2023-01-16T08:10:38;1.18;91.37
66401;HTU21D;53211;45.040;38.788;2023-01-16T08:13:05;1.21;91.27
66401;HTU21D;53211;45.040;38.788;2023-01-16T08:15:34;1.28;91.69
66401;HTU21D;53211;45.040;38.788;2023-01-16T08:17:59;1.35;91.49
66401;HTU21D;53211;45.040;38.788;2023-01-16T08:20:25;1.42;91.49
66401;HTU21D;53211;45.040;38.788;2023-01-16T08:22:52;1.47;91.61
66401;HTU21D;53211;45.040;38.788;2023-01-16T08:25:20;1.54;91.96
66401;HTU21D;53211;45.040;38.788;2023-01-16T08:27:49;1.62;91.91
66401;HTU21D;53211;45.040;38.788;2023-01-16T08:30:15;1.67;92.21
66401;HTU21D;53211;45.040;38.788;2023-01-16T08:32:42;1.75;92.37
66401;HTU21D;53211;45.040;38.788;2023-01-16T08:35:09;1.83;92.50
66401;HTU21D;53211;45.040;38.788;2023-01-16T08:37:35;1.91;92.59
66401;HTU21D;53211;45.040;38.788;2023-01-16T08:40:01;1.98;92.67
66401;HTU21D;53211;45.040;38.788;2023-01-16T08:42:28;2.06;92.62
66401;HTU21D;53211;45.040;38.788;2023-01-16T08:45:13;2.14;92.66
66401;HTU21D;53211;45.040;38.788;2023-01-16T08:47:59;2.24;92.63
66401;HTU21D;53211;45.040;38.788;2023-01-16T08:50:49;0.00;92.81
66401;HTU21D;53211;45.040;38.788;2023-01-16T08:53:34;2.45;92.82
66401;HTU21D;53211;45.040;38.788;2023-01-16T08:56:00;2.55;92.76
66401;HTU21D;53211;45.040;38.788;2023-01-16T08:58:25;2.62;92.92
66401;HTU21D;53211;45.040;38.788;2023-01-16T09:00:51;2.72;92.87
66401;HTU21D;53211;45.040;38.788;2023-01-16T09:03:17;2.80;92.89
66401;HTU21D;53211;45.040;38.788;2023-01-16T09:05:43;2.87;92.91
66401;HTU21D;53211;45.040;38.788;2023-01-16T09:08:12;2.94;92.95
66401;HTU21D;53211;45.040;38.788;2023-01-16T09:10:38;3.03;93.58
66401;HTU21D;53211;45.040;38.788;2023-01-16T09:13:04;3.14;93.49
66401;HTU21D;53211;45.040;38.788;2023-01-16T09:15:48;3.21;93.52
66401;HTU21D;53211;45.040;38.788;2023-01-16T09:18:15;3.30;93.59
66401;HTU21D;53211;45.040;38.788;2023-01-16T09:20:41;3.35;93.61
66401;HTU21D;53211;45.040;38.788;2023-01-16T09:23:06;3.42;93.49
66401;HTU21D;53211;45.040;38.788;2023-01-16T09:25:33;3.48;93.33
66401;HTU21D;53211;45.040;38.788;2023-01-16T09:27:59;3.54;93.43
66401;HTU21D;53211;45.040;38.788;2023-01-16T09:30:28;3.59;93.45
66401;HTU21D;53211;45.040;38.788;2023-01-16T09:32:54;3.62;93.36
66401;HTU21D;53211;45.040;38.788;2023-01-16T09:35:20;3.67;93.25
66401;HTU21D;53211;45.040;38.788;2023-01-16T09:37:46;3.68;93.01
66401;HTU21D;53211;45.040;38.788;2023-01-16T09:40:20;3.67;92.89
66401;HTU21D;53211;45.040;38.788;2023-01-16T09:43:05;3.69;92.82
66401;HTU21D;53211;45.040;38.788;2023-01-16T09:45:53;3.73;93.09
66401;HTU21D;53211;45.040;38.788;2023-01-16T09:48:27;3.79;92.92
66401;HTU21D;53211;45.040;38.788;2023-01-16T09:51:06;3.80;93.04
66401;HTU21D;53211;45.040;38.788;2023-01-16T09:56:34;3.91;92.84
66401;HTU21D;53211;45.040;38.788;2023-01-16T09:59:28;3.99;93.14
66401;HTU21D;53211;45.040;38.788;2023-01-16T10:02:28;4.20;93.59
66401;HTU21D;53211;45.040;38.788;2023-01-16T10:04:57;4.47;93.55
66401;HTU21D;53211;45.040;38.788;2023-01-16T10:12:45;5.42;92.96
66401;HTU21D;53211;45.040;38.788;2023-01-16T10:15:39;5.69;92.34
66401;HTU21D;53211;45.040;38.788;2023-01-16T10:18:12;5.87;91.72
66401;HTU21D;53211;45.040;38.788;2023-01-16T10:23:54;6.00;90.75
66401;HTU21D;53211;45.040;38.788;2023-01-16T10:26:30;5.91;90.38
66401;HTU21D;53211;45.040;38.788;2023-01-16T10:37:26;5.76;90.83
66401;HTU21D;53211;45.040;38.788;2023-01-16T10:39:54;5.80;90.86
66401;HTU21D;53211;45.040;38.788;2023-01-16T10:42:29;5.90;90.99
66401;HTU21D;53211;45.040;38.788;2023-01-16T10:45:34;6.07;90.95
66401;HTU21D;53211;45.040;38.788;2023-01-16T10:48:36;6.24;90.75
66401;HTU21D;53211;45.040;38.788;2023-01-16T10:51:21;6.38;90.33
66401;HTU21D;53211;45.040;38.788;2023-01-16T10:53:47;6.49;90.04
66401;HTU21D;53211;45.040;38.788;2023-01-16T10:56:13;6.56;89.95
66401;HTU21D;53211;45.040;38.788;2023-01-16T10:58:38;6.61;89.83
66401;HTU21D;53211;45.040;38.788;2023-01-16T11:01:17;6.63;89.25
66401;HTU21D;53211;45.040;38.788;2023-01-16T11:03:53;6.55;89.15
66401;HTU21D;53211;45.040;38.788;2023-01-16T11:06:23;6.54;89.25
66401;HTU21D;53211;45.040;38.788;2023-01-16T11:08:54;6.56;89.60
66401;HTU21D;53211;45.040;38.788;2023-01-16T11:11:21;6.64;89.65
66401;HTU21D;53211;45.040;38.788;2023-01-16T11:14:14;6.68;89.39
66401;HTU21D;53211;45.040;38.788;2023-01-16T11:17:23;6.72;89.34
66401;HTU21D;53211;45.040;38.788;2023-01-16T11:20:28;6.79;89.34
66401;HTU21D;53211;45.040;38.788;2023-01-16T11:23:16;6.86;88.99
66401;HTU21D;53211;45.040;38.788;2023-01-16T11:25:43;6.95;89.11
66401;HTU21D;53211;45.040;38.788;2023-01-16T11:28:34;7.02;88.99
66401;HTU21D;53211;45.040;38.788;2023-01-16T11:31:12;7.13;88.90
66401;HTU21D;53211;45.040;38.788;2023-01-16T11:33:49;0.00;88.69
66401;HTU21D;53211;45.040;38.788;2023-01-16T11:36:21;7.39;89.02
66401;HTU21D;53211;45.040;38.788;2023-01-16T11:38:49;7.68;89.33
66401;HTU21D;53211;45.040;38.788;2023-01-16T11:41:23;8.01;89.08
66401;HTU21D;53211;45.040;38.788;2023-01-16T11:44:13;8.19;88.23
66401;HTU21D;53211;45.040;38.788;2023-01-16T11:46:59;8.18;87.75
66401;HTU21D;53211;45.040;38.788;2023-01-16T11:49:32;8.16;87.28
66401;HTU21D;53211;45.040;38.788;2023-01-16T11:51:59;8.01;87.35
66401;HTU21D;53211;45.040;38.788;2023-01-16T11:54:34;7.83;87.04
66401;HTU21D;53211;45.040;38.788;2023-01-16T12:08:04;7.42;88.52
66401;HTU21D;53211;45.040;38.788;2023-01-16T12:11:04;7.58;88.07
66401;HTU21D;53211;45.040;38.788;2023-01-16T12:13:51;7.71;87.18
66401;HTU21D;53211;45.040;38.788;2023-01-16T12:22:22;7.54;87.05
66401;HTU21D;53211;45.040;38.788;2023-01-16T12:31:49;7.43;86.70
66401;HTU21D;53211;45.040;38.788;2023-01-16T12:34:31;7.49;87.07
66401;HTU21D;53211;45.040;38.788;2023-01-16T12:40:18;7.47;86.62
66401;HTU21D;53211;45.040;38.788;2023-01-16T12:45:59;7.32;86.64
66401;HTU21D;53211;45.040;38.788;2023-01-16T12:59:16;7.01;86.77
66401;HTU21D;53211;45.040;38.788;2023-01-16T13:01:47;6.95;86.92
66401;HTU21D;53211;45.040;38.788;2023-01-16T13:06:50;0.00;86.83
66401;HTU21D;53211;45.040;38.788;2023-01-16T13:12:23;6.61;86.90
66401;HTU21D;53211;45.040;38.788;2023-01-16T13:15:19;6.52;87.03
66401;HTU21D;53211;45.040;38.788;2023-01-16T13:17:49;6.43;86.95
66401;HTU21D;53211;45.040;38.788;2023-01-16T13:20:19;6.34;87.00
66401;HTU21D;53211;45.040;38.788;2023-01-16T13:23:04;6.27;87.13
66401;HTU21D;53211;45.040;38.788;2023-01-16T13:25:40;6.19;87.14
66401;HTU21D;53211;45.040;38.788;2023-01-16T13:31:06;5.99;87.03
66401;HTU21D;53211;45.040;38.788;2023-01-16T13:33:35;5.89;87.19
66401;HTU21D;53211;45.040;38.788;2023-01-16T13:41:56;5.67;87.33
66401;HTU21D;53211;45.040;38.788;2023-01-16T13:44:30;5.60;87.26
66401;HTU21D;53211;45.040;38.788;2023-01-16T13:47:19;5.51;87.35
66401;HTU21D;53211;45.040;38.788;2023-01-16T13:49:54;5.46;87.38
66401;HTU21D;53211;45.040;38.788;2023-01-16T13:52:27;5.39;87.35
66401;HTU21D;53211;45.040;38.788;2023-01-16T13:54:57;5.34;87.43
66401;HTU21D;53211;45.040;38.788;2023-01-16T13:57:25;5.28;87.32
66401;HTU21D;53211;45.040;38.788;2023-01-16T14:00:12;5.23;87.29
66401;HTU21D;53211;45.040;38.788;2023-01-16T14:02:40;5.17;87.32
66401;HTU21D;53211;45.040;38.788;2023-01-16T14:10:51;4.93;87.32
66401;HTU21D;53211;45.040;38.788;2023-01-16T14:13:36;4.87;87.44
66401;HTU21D;53211;45.040;38.788;2023-01-16T14:16:31;4.80;87.50
66401;HTU21D;53211;45.040;38.788;2023-01-16T14:19:21;4.76;87.57
66401;HTU21D;53211;45.040;38.788;2023-01-16T14:21:47;4.72;87.60
66401;HTU21D;53211;45.040;38.788;2023-01-16T14:24:42;4.67;87.61
66401;HTU21D;53211;45.040;38.788;2023-01-16T14:27:15;4.63;87.68
66401;HTU21D;53211;45.040;38.788;2023-01-16T14:29:59;4.59;87.64
66401;HTU21D;53211;45.040;38.788;2023-01-16T14:32:32;4.53;87.60
66401;HTU21D;53211;45.040;38.788;2023-01-16T14:35:02;4.46;87.69
66401;HTU21D;53211;45.040;38.788;2023-01-16T14:37:43;4.41;87.67
66401;HTU21D;53211;45.040;38.788;2023-01-16T14:42:52;4.26;87.64
66401;HTU21D;53211;45.040;38.788;2023-01-16T14:45:39;4.19;87.74
66401;HTU21D;53211;45.040;38.788;2023-01-16T14:54:28;3.93;87.80
66401;HTU21D;53211;45.040;38.788;2023-01-16T14:57:23;3.86;88.06
66401;HTU21D;53211;45.040;38.788;2023-01-16T15:05:19;3.69;87.95
66401;HTU21D;53211;45.040;38.788;2023-01-16T15:07:54;3.63;87.96
66401;HTU21D;53211;45.040;38.788;2023-01-16T15:10:36;3.59;88.02
66401;HTU21D;53211;45.040;38.788;2023-01-16T15:18:23;3.36;87.98
66401;HTU21D;53211;45.040;38.788;2023-01-16T15:21:14;3.29;88.03
66401;HTU21D;53211;45.040;38.788;2023-01-16T15:23:59;3.20;88.12
66401;HTU21D;53211;45.040;38.788;2023-01-16T15:26:42;3.15;88.12
66401;HTU21D;53211;45.040;38.788;2023-01-16T15:31:44;3.03;88.15
66401;HTU21D;53211;45.040;38.788;2023-01-16T15:36:42;2.91;88.16
66401;HTU21D;53211;45.040;38.788;2023-01-16T15:39:41;2.85;88.11
66401;HTU21D;53211;45.040;38.788;2023-01-16T15:42:30;2.76;88.12
66401;HTU21D;53211;45.040;38.788;2023-01-16T15:45:21;2.70;88.15
66401;HTU21D;53211;45.040;38.788;2023-01-16T15:48:43;2.62;88.25
66401;HTU21D;53211;45.040;38.788;2023-01-16T15:51:15;2.57;88.15
66401;HTU21D;53211;45.040;38.788;2023-01-16T15:53:45;2.47;88.02
66401;HTU21D;53211;45.040;38.788;2023-01-16T15:56:25;2.40;88.05
66401;HTU21D;53211;45.040;38.788;2023-01-16T15:58:54;2.31;88.02
66401;HTU21D;53211;45.040;38.788;2023-01-16T16:01:32;2.22;87.97
66401;HTU21D;53211;45.040;38.788;2023-01-16T16:04:01;2.15;88.09
66401;HTU21D;53211;45.040;38.788;2023-01-16T16:06:28;2.09;88.17
66401;HTU21D;53211;45.040;38.788;2023-01-16T16:08:56;2.05;88.10
66401;HTU21D;53211;45.040;38.788;2023-01-16T16:11:31;1.96;88.02
66401;HTU21D;53211;45.040;38.788;2023-01-16T16:14:28;1.87;87.99
66401;HTU21D;53211;45.040;38.788;2023-01-16T16:17:20;1.87;87.80
66401;HTU21D;53211;45.040;38.788;2023-01-16T16:23:05;1.60;87.99
66401;HTU21D;53211;45.040;38.788;2023-01-16T16:28:05;1.49;88.29
66401;HTU21D;53211;45.040;38.788;2023-01-16T16:30:39;1.48;88.43
66401;HTU21D;53211;45.040;38.788;2023-01-16T16:33:17;1.48;88.59
66401;HTU21D;53211;45.040;38.788;2023-01-16T16:35:55;1.46;88.66
66401;HTU21D;53211;45.040;38.788;2023-01-16T16:38:29;1.46;88.70
66401;HTU21D;53211;45.040;38.788;2023-01-16T16:43:48;1.46;88.85
66401;HTU21D;53211;45.040;38.788;2023-01-16T16:48:58;1.49;89.03
66401;HTU21D;53211;45.040;38.788;2023-01-16T16:51:35;1.50;88.99
66401;HTU21D;53211;45.040;38.788;2023-01-16T16:54:09;1.51;88.98
66401;HTU21D;53211;45.040;38.788;2023-01-16T16:56:38;1.50;88.86
66401;HTU21D;53211;45.040;38.788;2023-01-16T16:59:11;1.49;88.76
66401;HTU21D;53211;45.040;38.788;2023-01-16T17:01:48;1.45;88.67
66401;HTU21D;53211;45.040;38.788;2023-01-16T17:04:15;1.43;88.58
66401;HTU21D;53211;45.040;38.788;2023-01-16T17:06:43;1.40;88.47
66401;HTU21D;53211;45.040;38.788;2023-01-16T17:09:12;1.36;88.36
66401;HTU21D;53211;45.040;38.788;2023-01-16T17:11:41;1.31;88.23
66401;HTU21D;53211;45.040;38.788;2023-01-16T17:14:13;1.23;88.16
66401;HTU21D;53211;45.040;38.788;2023-01-16T17:16:39;1.18;88.15
66401;HTU21D;53211;45.040;38.788;2023-01-16T17:19:19;1.08;88.18
66401;HTU21D;53211;45.040;38.788;2023-01-16T17:21:45;1.03;88.17
66401;HTU21D;53211;45.040;38.788;2023-01-16T17:24:16;0.95;88.15
66401;HTU21D;53211;45.040;38.788;2023-01-16T17:26:46;0.88;88.05
66401;HTU21D;53211;45.040;38.788;2023-01-16T17:29:15;0.78;87.96
66401;HTU21D;53211;45.040;38.788;2023-01-16T17:31:48;0.67;87.86
66401;HTU21D;53211;45.040;38.788;2023-01-16T17:34:19;0.57;87.83
66401;HTU21D;53211;45.040;38.788;2023-01-16T17:36:46;0.48;87.87
66401;HTU21D;53211;45.040;38.788;2023-01-16T17:39:20;0.39;88.00
66401;HTU21D;53211;45.040;38.788;2023-01-16T17:41:47;0.34;88.14
66401;HTU21D;53211;45.040;38.788;2023-01-16T17:44:20;0.29;88.27
66401;HTU21D;53211;45.040;38.788;2023-01-16T17:47:08;0.24;88.39
66401;HTU21D;53211;45.040;38.788;2023-01-16T17:49:35;0.21;88.45
66401;HTU21D;53211;45.040;38.788;2023-01-16T17:52:23;0.16;88.41
66401;HTU21D;53211;45.040;38.788;2023-01-16T17:54:52;0.14;88.41
66401;HTU21D;53211;45.040;38.788;2023-01-16T17:57:39;0.08;88.47
66401;HTU21D;53211;45.040;38.788;2023-01-16T18:00:15;0.06;88.55
66401;HTU21D;53211;45.040;38.788;2023-01-16T18:02:48;0.05;88.60
66401;HTU21D;53211;45.040;38.788;2023-01-16T18:05:14;0.03;88.67
66401;HTU21D;53211;45.040;38.788;2023-01-16T18:07:43;0.01;88.73
66401;HTU21D;53211;45.040;38.788;2023-01-16T18:10:09;0.01;88.68
66401;HTU21D;53211;45.040;38.788;2023-01-16T18:12:43;-0.01;88.68
66401;HTU21D;53211;45.040;38.788;2023-01-16T18:15:30;-0.03;88.67
66401;HTU21D;53211;45.040;38.788;2023-01-16T18:18:21;-0.06;88.74
66401;HTU21D;53211;45.040;38.788;2023-01-16T18:20:48;-0.06;88.81
66401;HTU21D;53211;45.040;38.788;2023-01-16T18:23:42;-0.06;88.83
66401;HTU21D;53211;45.040;38.788;2023-01-16T18:26:13;-0.07;88.64